Time;durP1;ratioP1;P1;durP2;ratioP2;P2;SDS_P1;SDS_P2;PMS_P1;PMS_P2;Temp;Humidity;BMP_temperature;BMP_pressure;BME280_temperature;BME280_humidity;BME280_pressure;Samples;Min_cycle;Max_cycle;Signal;HPM_P1;HPM_P2
2024/04/03 00:01:17;;;;;;;1.63;1.08;;;10.70;95.40;;;;;;4996192;28;20408;-73
2024/04/03 00:03:44;;;;;;;5.03;1.20;;;10.60;95.70;;;;;;4996922;28;20026;-73
2024/04/03 00:06:10;;;;;;;4.25;1.38;;;10.60;95.60;;;;;;4996283;28;20038;-70
2024/04/03 00:08:36;;;;;;;2.15;0.93;;;10.60;95.50;;;;;;4995785;28;20046;-72
2024/04/03 00:11:04;;;;;;;3.05;1.50;;;10.70;95.90;;;;;;4996376;28;20137;-73
2024/04/03 00:13:30;;;;;;;2.05;1.25;;;10.60;95.80;;;;;;4996512;28;20041;-73
2024/04/03 00:15:57;;;;;;;2.65;1.50;;;10.60;95.80;;;;;;4996445;28;20023;-73
2024/04/03 00:18:24;;;;;;;2.28;1.33;;;10.60;96.20;;;;;;4995553;28;20034;-73
2024/04/03 00:21:00;;;;;;;3.28;1.20;;;10.60;96.00;;;;;;4996008;28;20038;-73
2024/04/03 00:23:26;;;;;;;2.38;1.27;;;10.50;96.50;;;;;;4996311;28;20030;-73
2024/04/03 00:26:00;;;;;;;2.35;1.17;;;10.50;96.20;;;;;;4994706;28;20472;-73
2024/04/03 00:28:27;;;;;;;1.35;0.80;;;10.50;96.40;;;;;;4996177;28;20393;-73
2024/04/03 00:30:54;;;;;;;1.77;0.90;;;10.50;96.50;;;;;;4996210;28;20019;-72
2024/04/03 00:33:21;;;;;;;4.85;1.10;;;10.50;96.50;;;;;;4995984;28;20042;-73
2024/04/03 00:35:58;;;;;;;2.30;0.82;;;10.40;96.90;;;;;;4995973;28;20023;-73
2024/04/03 00:38:25;;;;;;;1.90;1.00;;;10.40;97.60;;;;;;4995355;28;20396;-74
2024/04/03 00:40:59;;;;;;;2.28;0.93;;;10.30;97.80;;;;;;4996061;28;20063;-73
2024/04/03 00:43:27;;;;;;;1.13;0.70;;;10.20;98.80;;;;;;4995933;28;20031;-73
2024/04/03 00:45:55;;;;;;;1.70;0.80;;;10.20;98.20;;;;;;4995656;28;20034;-71
2024/04/03 00:48:22;;;;;;;1.40;0.68;;;10.20;98.40;;;;;;4995740;28;20160;-73
2024/04/03 00:50:50;;;;;;;1.73;0.90;;;10.20;98.40;;;;;;4995590;28;20030;-73
2024/04/03 00:53:18;;;;;;;1.98;0.85;;;10.20;98.60;;;;;;4995467;28;20031;-73
2024/04/03 00:55:45;;;;;;;1.92;1.08;;;10.20;98.90;;;;;;4995593;28;20026;-72
2024/04/03 00:58:11;;;;;;;1.92;1.08;;;10.20;99.00;;;;;;4995434;28;20045;-73
2024/04/03 01:00:37;;;;;;;3.10;1.10;;;10.10;99.10;;;;;;4995545;28;20033;-72
2024/04/03 01:03:05;;;;;;;1.33;0.80;;;10.10;99.10;;;;;;4995122;28;20365;-73
2024/04/03 01:05:32;;;;;;;2.28;1.20;;;10.10;99.60;;;;;;4995345;28;20053;-73
2024/04/03 01:07:58;;;;;;;4.22;1.15;;;10.10;99.90;;;;;;4995188;28;20038;-73
2024/04/03 01:10:26;;;;;;;2.88;1.30;;;10.00;99.90;;;;;;4995712;28;20034;-73
2024/04/03 01:12:54;;;;;;;1.92;1.17;;;9.90;99.90;;;;;;4995229;28;20061;-73
2024/04/03 01:15:21;;;;;;;2.33;1.00;;;9.90;99.90;;;;;;4994893;28;20038;-73
2024/04/03 01:17:47;;;;;;;4.00;1.35;;;9.90;99.90;;;;;;4995575;28;20103;-73
2024/04/03 01:20:16;;;;;;;2.60;1.20;;;9.90;99.90;;;;;;4995690;28;20022;-73
2024/04/03 01:22:42;;;;;;;2.90;1.10;;;9.90;99.90;;;;;;4993506;28;20049;-73
2024/04/03 01:25:09;;;;;;;2.72;0.95;;;9.90;99.90;;;;;;4995400;28;20033;-73
2024/04/03 01:27:35;;;;;;;2.05;1.00;;;9.90;99.90;;;;;;4994057;28;20039;-73
2024/04/03 01:30:02;;;;;;;1.60;0.88;;;9.90;99.90;;;;;;4994124;28;20085;-73
2024/04/03 01:32:29;;;;;;;1.73;0.68;;;9.90;99.90;;;;;;4995256;28;20026;-73
2024/04/03 01:34:55;;;;;;;1.17;0.75;;;9.90;99.90;;;;;;4994961;28;20492;-73
2024/04/03 01:37:21;;;;;;;2.28;1.08;;;9.80;99.90;;;;;;4993211;28;20049;-73
2024/04/03 01:39:48;;;;;;;1.75;1.05;;;9.80;99.90;;;;;;4995020;28;20034;-73
2024/04/03 01:42:14;;;;;;;1.55;0.95;;;9.70;99.90;;;;;;4994871;28;20470;-73
2024/04/03 01:44:40;;;;;;;1.10;0.75;;;9.70;99.90;;;;;;4994404;28;20042;-73
2024/04/03 01:47:07;;;;;;;2.80;1.30;;;9.70;99.90;;;;;;4994701;28;20026;-72
2024/04/03 01:49:33;;;;;;;3.95;1.02;;;9.70;99.90;;;;;;4994206;28;20046;-72
2024/04/03 01:51:59;;;;;;;2.35;1.08;;;9.70;99.90;;;;;;4995012;28;20338;-73
2024/04/03 01:54:27;;;;;;;2.42;1.23;;;9.60;99.90;;;;;;4994367;28;20038;-72
2024/04/03 01:56:54;;;;;;;1.63;0.80;;;9.60;99.90;;;;;;4994640;28;20022;-73
2024/04/03 01:59:21;;;;;;;2.00;0.88;;;9.60;99.90;;;;;;4994382;28;20037;-73
2024/04/03 02:01:47;;;;;;;1.42;0.85;;;9.60;99.90;;;;;;4994490;28;20028;-72
2024/04/03 02:04:14;;;;;;;1.85;0.95;;;9.50;99.90;;;;;;4993840;28;20050;-73
2024/04/03 02:06:41;;;;;;;1.58;0.82;;;9.60;99.90;;;;;;4994570;28;20479;-73
2024/04/03 02:09:07;;;;;;;1.73;0.90;;;9.60;99.90;;;;;;4994056;28;20047;-72
2024/04/03 02:11:33;;;;;;;2.75;0.88;;;9.50;99.90;;;;;;4994466;28;20034;-73
2024/04/03 02:14:00;;;;;;;3.78;0.98;;;9.50;99.90;;;;;;4994377;28;20030;-73
2024/04/03 02:16:29;;;;;;;2.15;1.10;;;9.50;99.90;;;;;;4994967;28;20030;-73
2024/04/03 02:18:56;;;;;;;1.13;0.65;;;9.60;99.90;;;;;;4994419;28;20018;-73
2024/04/03 02:21:23;;;;;;;1.10;0.70;;;9.60;99.90;;;;;;4994160;28;20101;-73
2024/04/03 02:23:49;;;;;;;1.60;0.90;;;9.60;99.90;;;;;;4994502;28;20033;-73
2024/04/03 02:26:15;;;;;;;1.95;0.70;;;9.50;99.90;;;;;;4994343;28;20026;-73
2024/04/03 02:28:42;;;;;;;1.77;0.95;;;9.60;99.90;;;;;;4994019;28;20050;-73
2024/04/03 02:31:08;;;;;;;1.45;0.80;;;9.60;99.90;;;;;;4994756;28;20026;-72
2024/04/03 02:33:34;;;;;;;1.25;0.70;;;9.60;99.90;;;;;;4994300;28;20369;-73
2024/04/03 02:36:13;;;;;;;6.25;0.98;;;9.70;99.90;;;;;;4994402;28;20030;-74
2024/04/03 02:38:40;;;;;;;2.53;0.82;;;9.70;99.90;;;;;;4992303;28;20493;-73
2024/04/03 02:41:06;;;;;;;2.28;0.93;;;9.70;99.90;;;;;;4994087;28;20030;-73
2024/04/03 02:43:32;;;;;;;2.75;1.17;;;9.70;99.90;;;;;;4993591;28;20038;-73
2024/04/03 02:45:58;;;;;;;2.08;0.90;;;9.70;99.90;;;;;;4993863;28;20465;-73
2024/04/03 02:48:25;;;;;;;2.55;1.10;;;9.70;99.90;;;;;;4993560;28;20047;-73
2024/04/03 02:51:00;;;;;;;4.93;1.10;;;9.70;99.90;;;;;;4994112;28;20030;-73
2024/04/03 02:53:26;;;;;;;3.25;1.27;;;9.70;99.90;;;;;;4994869;28;20369;-72
2024/04/03 02:55:53;;;;;;;3.15;1.50;;;9.60;99.90;;;;;;4994179;28;20035;-73
2024/04/03 02:58:19;;;;;;;3.53;1.42;;;9.60;99.90;;;;;;4993994;28;20045;-73
2024/04/03 03:00:45;;;;;;;2.53;1.35;;;9.60;99.90;;;;;;4994064;28;20026;-73
2024/04/03 03:03:11;;;;;;;2.83;1.10;;;9.50;99.90;;;;;;4996437;28;20054;-73
2024/04/03 03:05:38;;;;;;;3.85;1.58;;;9.50;99.90;;;;;;4997689;28;20030;-72
2024/04/03 03:08:04;;;;;;;5.03;1.92;;;9.40;99.90;;;;;;4998049;28;20476;-73
2024/04/03 03:10:30;;;;;;;2.88;1.38;;;9.30;99.90;;;;;;4997464;28;20049;-73
2024/04/03 03:12:59;;;;;;;2.20;1.20;;;9.30;99.90;;;;;;4997601;28;20132;-73
2024/04/03 03:15:25;;;;;;;1.98;1.15;;;9.30;99.90;;;;;;4997557;28;20026;-73
2024/04/03 03:17:51;;;;;;;1.88;1.20;;;9.40;99.90;;;;;;4997112;28;20033;-73
2024/04/03 03:20:17;;;;;;;3.47;1.30;;;9.30;99.90;;;;;;4997547;28;20030;-72
2024/04/03 03:22:44;;;;;;;2.55;1.00;;;9.30;99.90;;;;;;4997684;28;20027;-73
2024/04/03 03:25:10;;;;;;;4.32;1.10;;;9.20;99.90;;;;;;4997345;28;20042;-73
2024/04/03 03:27:36;;;;;;;1.80;0.93;;;9.10;99.90;;;;;;4997072;28;20034;-73
2024/04/03 03:30:02;;;;;;;4.68;0.75;;;9.10;99.90;;;;;;4997392;28;20053;-73
2024/04/03 03:32:29;;;;;;;3.08;1.00;;;9.10;99.90;;;;;;4996995;28;20030;-72
2024/04/03 03:34:55;;;;;;;1.85;0.98;;;9.10;99.90;;;;;;4996763;28;20038;-73
2024/04/03 03:37:21;;;;;;;1.88;0.95;;;9.20;99.90;;;;;;4997394;28;20031;-73
2024/04/03 03:39:47;;;;;;;1.23;0.82;;;9.10;99.90;;;;;;4997168;28;20417;-73
2024/04/03 03:42:13;;;;;;;3.03;1.08;;;9.10;99.90;;;;;;4996630;28;20034;-73
2024/04/03 03:44:39;;;;;;;3.72;1.27;;;9.10;99.90;;;;;;4997282;28;20030;-73
2024/04/03 03:47:06;;;;;;;3.00;1.50;;;9.10;99.90;;;;;;4997152;28;20034;-73
2024/04/03 03:55:02;;;;;;;2.22;1.13;;;9.20;99.90;;;;;;4996912;28;20034;-73
2024/04/03 03:57:31;;;;;;;3.63;1.40;;;9.20;99.90;;;;;;4996503;28;20038;-73
2024/04/03 03:59:58;;;;;;;2.15;1.15;;;9.30;99.90;;;;;;4996703;28;20034;-73
2024/04/03 04:02:25;;;;;;;2.33;1.40;;;9.30;99.90;;;;;;4997034;28;20026;-72
2024/04/03 04:04:52;;;;;;;4.72;1.50;;;9.30;99.90;;;;;;4997047;28;20026;-73
2024/04/03 04:07:22;;;;;;;5.43;1.42;;;9.40;99.90;;;;;;4995643;28;20023;-72
2024/04/03 04:09:52;;;;;;;2.35;1.40;;;9.40;99.90;;;;;;4996314;28;20524;-73
2024/04/03 04:12:19;;;;;;;2.90;1.80;;;9.40;99.90;;;;;;4995990;28;20042;-73
2024/04/03 04:14:50;;;;;;;3.97;1.45;;;9.30;99.90;;;;;;4995572;28;20062;-73
2024/04/03 04:17:17;;;;;;;2.42;1.48;;;9.30;99.90;;;;;;4991008;28;20031;-72
2024/04/03 04:19:43;;;;;;;3.58;1.75;;;9.30;99.90;;;;;;5001067;28;20034;-72
2024/04/03 04:22:10;;;;;;;4.65;1.55;;;9.30;99.90;;;;;;5004024;28;20030;-72
2024/04/03 04:24:37;;;;;;;2.10;1.20;;;9.30;99.90;;;;;;5002475;28;20034;-72
2024/04/03 04:27:05;;;;;;;3.65;1.38;;;9.30;99.90;;;;;;5001976;28;20061;-72
2024/04/03 04:29:32;;;;;;;2.25;1.27;;;9.40;99.90;;;;;;5007291;28;20054;-73
2024/04/03 04:31:59;;;;;;;2.10;1.10;;;9.30;99.90;;;;;;5007491;28;20048;-72
2024/04/03 04:34:26;;;;;;;1.85;1.20;;;9.30;99.90;;;;;;4995504;28;20030;-73
2024/04/03 04:36:52;;;;;;;2.95;1.63;;;9.30;99.90;;;;;;4995524;28;20027;-74
2024/04/03 04:39:19;;;;;;;2.33;1.25;;;9.20;99.90;;;;;;4994994;28;20373;-73
2024/04/03 04:41:52;;;;;;;1.77;1.08;;;9.30;99.90;;;;;;4995278;28;20388;-73
2024/04/03 04:44:20;;;;;;;2.70;1.38;;;9.30;99.90;;;;;;4995501;28;20033;-74
2024/04/03 04:46:51;;;;;;;3.42;1.25;;;9.30;99.90;;;;;;4995192;28;20022;-73
2024/04/03 04:49:18;;;;;;;2.45;1.33;;;9.30;99.90;;;;;;4995376;28;20038;-73
2024/04/03 04:51:44;;;;;;;1.95;1.17;;;9.30;99.90;;;;;;4994699;28;20472;-73
2024/04/03 04:54:12;;;;;;;2.38;1.40;;;9.30;99.90;;;;;;4994172;28;20042;-73
2024/04/03 04:56:39;;;;;;;3.03;1.25;;;9.30;99.90;;;;;;4995150;28;20037;-73
2024/04/03 04:59:05;;;;;;;2.53;1.20;;;9.40;99.90;;;;;;4995055;28;20026;-73
2024/04/03 05:01:36;;;;;;;4.18;1.27;;;9.50;99.90;;;;;;4995161;28;20034;-73
2024/04/03 05:04:03;;;;;;;1.90;1.25;;;9.50;99.90;;;;;;5014077;28;20046;-73
2024/04/03 05:06:29;;;;;;;1.38;0.85;;;9.60;99.90;;;;;;5014091;28;20045;-73
2024/04/03 05:08:58;;;;;;;2.10;1.10;;;9.50;99.90;;;;;;5013558;28;20072;-73
2024/04/03 05:11:25;;;;;;;1.70;1.10;;;9.50;99.90;;;;;;5014487;28;20030;-72
2024/04/03 05:13:51;;;;;;;2.20;1.05;;;9.50;99.90;;;;;;5014356;28;20025;-72
2024/04/03 05:16:20;;;;;;;4.32;1.30;;;9.50;99.90;;;;;;5014328;28;20030;-73
2024/04/03 05:18:50;;;;;;;2.05;1.20;;;9.50;99.90;;;;;;5014195;28;20029;-73
2024/04/03 05:21:17;;;;;;;3.13;1.60;;;9.60;99.90;;;;;;5014308;28;20037;-73
2024/04/03 05:23:45;;;;;;;3.28;1.38;;;9.70;99.90;;;;;;5013682;28;20030;-73
2024/04/03 05:26:13;;;;;;;2.70;1.48;;;9.70;99.90;;;;;;5013586;28;20029;-73
2024/04/03 05:28:40;;;;;;;5.70;1.40;;;9.80;99.90;;;;;;5014303;28;20042;-73
2024/04/03 05:31:14;;;;;;;2.95;1.27;;;9.80;99.90;;;;;;5013659;28;20038;-73
2024/04/03 05:33:42;;;;;;;5.50;1.70;;;9.90;99.90;;;;;;4995610;28;20046;-73
2024/04/03 05:36:09;;;;;;;4.13;1.73;;;9.90;99.90;;;;;;4994264;28;20022;-73
2024/04/03 05:38:36;;;;;;;4.32;1.48;;;10.00;99.90;;;;;;4993931;28;20030;-73
2024/04/03 05:41:03;;;;;;;2.58;1.38;;;9.90;99.90;;;;;;4994224;28;20049;-73
2024/04/03 05:43:31;;;;;;;3.40;1.38;;;10.00;99.90;;;;;;4994371;28;20026;-73
2024/04/03 05:45:58;;;;;;;4.35;1.58;;;10.00;99.90;;;;;;4994225;28;20030;-73
2024/04/03 05:48:26;;;;;;;3.03;1.42;;;10.10;99.90;;;;;;4993698;28;20042;-73
2024/04/03 05:51:06;;;;;;;2.80;1.50;;;10.10;99.90;;;;;;4994099;28;20042;-73
2024/04/03 05:53:33;;;;;;;5.80;1.60;;;10.10;99.90;;;;;;4993718;28;20034;-73
2024/04/03 05:56:02;;;;;;;4.80;1.90;;;10.20;99.90;;;;;;4994026;28;20037;-73
2024/04/03 05:58:28;;;;;;;3.70;1.70;;;10.20;99.90;;;;;;4993996;28;20039;-72
2024/04/03 06:00:57;;;;;;;2.95;1.60;;;10.30;99.90;;;;;;4993906;28;20026;-73
2024/04/03 06:03:23;;;;;;;3.05;1.35;;;10.30;99.90;;;;;;5008231;28;20037;-73
2024/04/03 06:05:53;;;;;;;3.50;1.42;;;10.40;99.90;;;;;;5013393;28;20026;-73
2024/04/03 06:08:20;;;;;;;3.30;1.35;;;10.50;99.90;;;;;;5012932;28;20042;-73
2024/04/03 06:10:47;;;;;;;2.45;1.20;;;10.50;99.90;;;;;;5013527;28;20030;-72
2024/04/03 06:13:13;;;;;;;1.90;1.02;;;10.60;99.90;;;;;;5013413;28;20025;-73
2024/04/03 06:15:39;;;;;;;2.83;1.20;;;10.60;99.90;;;;;;4999334;28;20026;-73
2024/04/03 06:18:05;;;;;;;3.30;1.23;;;10.70;99.90;;;;;;4993281;28;20037;-70
2024/04/03 06:20:32;;;;;;;4.20;1.42;;;10.80;99.90;;;;;;4991657;28;20389;-73
2024/04/03 06:22:59;;;;;;;3.35;1.20;;;10.80;99.90;;;;;;4991360;28;20049;-73
2024/04/03 06:25:26;;;;;;;4.15;1.40;;;10.90;99.90;;;;;;5012797;28;20038;-73
2024/04/03 06:27:56;;;;;;;4.68;1.20;;;11.00;99.90;;;;;;4984947;28;20034;-71
2024/04/03 06:30:22;;;;;;;3.47;1.35;;;11.10;99.90;;;;;;4982247;28;20473;-73
2024/04/03 06:32:49;;;;;;;2.33;1.00;;;11.20;99.90;;;;;;4991542;28;20030;-73
2024/04/03 06:35:15;;;;;;;2.67;0.82;;;11.30;99.90;;;;;;4992997;28;20030;-73
2024/04/03 06:37:41;;;;;;;3.20;1.23;;;11.30;99.90;;;;;;4996427;28;20029;-72
2024/04/03 06:40:10;;;;;;;5.03;1.67;;;11.30;99.90;;;;;;4996434;28;20029;-72
2024/04/03 06:42:37;;;;;;;2.55;1.33;;;11.40;99.90;;;;;;4997232;28;20042;-72
2024/04/03 06:45:04;;;;;;;3.63;1.27;;;11.50;99.90;;;;;;4997501;28;20026;-72
2024/04/03 06:47:30;;;;;;;3.13;1.13;;;11.60;99.90;;;;;;4997683;28;20030;-72
2024/04/03 06:49:57;;;;;;;2.85;1.25;;;11.70;99.90;;;;;;4997433;28;20061;-72
2024/04/03 06:52:24;;;;;;;1.70;1.08;;;11.80;99.90;;;;;;4997383;28;20037;-72
2024/04/03 06:54:51;;;;;;;2.53;1.13;;;11.90;99.90;;;;;;4995790;28;20265;-72
2024/04/03 06:57:18;;;;;;;4.38;1.00;;;12.00;99.90;;;;;;4995198;28;20018;-72
2024/04/03 06:59:44;;;;;;;1.52;0.95;;;12.10;99.90;;;;;;4994981;28;20523;-72
2024/04/03 07:02:10;;;;;;;3.78;1.20;;;12.20;99.90;;;;;;4999834;28;20041;-73
2024/04/03 07:04:36;;;;;;;1.85;0.80;;;12.20;99.90;;;;;;5015146;28;20025;-73
2024/04/03 07:07:04;;;;;;;3.30;0.90;;;12.30;99.90;;;;;;5015493;28;20037;-72
2024/04/03 07:09:30;;;;;;;4.10;1.38;;;12.40;99.90;;;;;;5015947;28;20049;-72
2024/04/03 07:11:57;;;;;;;1.98;1.00;;;12.40;99.90;;;;;;5016669;28;20084;-72
2024/04/03 07:14:23;;;;;;;2.45;1.00;;;12.40;99.90;;;;;;5016603;28;20038;-72
2024/04/03 07:16:49;;;;;;;2.03;0.88;;;12.50;99.90;;;;;;5016493;28;20029;-73
2024/04/03 07:19:15;;;;;;;3.97;1.42;;;12.60;99.90;;;;;;5016034;28;20034;-72
2024/04/03 07:21:43;;;;;;;3.45;1.48;;;12.70;99.90;;;;;;5016575;28;20041;-73
2024/04/03 07:24:09;;;;;;;3.50;1.80;;;12.70;99.90;;;;;;5015516;28;20480;-73
2024/04/03 07:26:35;;;;;;;4.63;1.20;;;12.70;99.90;;;;;;5016566;28;20105;-71
2024/04/03 07:29:02;;;;;;;3.78;1.30;;;12.80;99.90;;;;;;5016245;28;20053;-71
2024/04/03 07:31:28;;;;;;;3.35;1.15;;;12.80;99.60;;;;;;5016267;28;20033;-71
2024/04/03 07:33:54;;;;;;;3.47;1.50;;;12.90;98.70;;;;;;4997489;28;20037;-71
2024/04/03 07:36:22;;;;;;;2.08;1.00;;;13.00;99.90;;;;;;4996651;28;20376;-71
2024/04/03 07:38:49;;;;;;;1.10;0.80;;;13.00;98.90;;;;;;4995752;28;20045;-72
2024/04/03 07:41:25;;;;;;;2.00;0.80;;;13.20;99.80;;;;;;4996844;28;20476;-71
2024/04/03 07:43:52;;;;;;;2.80;0.80;;;13.30;98.80;;;;;;4996406;28;20027;-72
2024/04/03 07:46:18;;;;;;;1.75;0.60;;;13.40;99.10;;;;;;4996653;28;20023;-72
2024/04/03 07:48:44;;;;;;;1.67;0.80;;;13.40;98.60;;;;;;4995511;28;20469;-73
2024/04/03 07:51:10;;;;;;;1.23;0.60;;;13.50;96.50;;;;;;4996058;28;20053;-72
2024/04/03 07:53:36;;;;;;;2.13;0.82;;;13.50;97.50;;;;;;4995718;28;20034;-72
2024/04/03 07:56:03;;;;;;;1.02;0.60;;;13.60;97.40;;;;;;4996198;28;20034;-72
2024/04/03 07:58:31;;;;;;;0.68;0.43;;;13.70;97.80;;;;;;4996004;28;20039;-72
2024/04/03 08:01:01;;;;;;;1.50;0.90;;;13.80;97.90;;;;;;4996088;28;20038;-72
2024/04/03 08:03:27;;;;;;;1.60;0.80;;;13.90;97.80;;;;;;5010517;28;20053;-72
2024/04/03 08:05:54;;;;;;;2.05;0.90;;;14.00;97.60;;;;;;5015696;28;20034;-72
2024/04/03 08:08:23;;;;;;;2.38;0.70;;;14.00;97.30;;;;;;5014814;28;20060;-72
2024/04/03 08:10:50;;;;;;;2.80;0.68;;;14.10;96.60;;;;;;5015604;28;20041;-72
2024/04/03 08:13:16;;;;;;;1.73;0.52;;;14.20;96.40;;;;;;5015638;28;20033;-72
2024/04/03 08:15:42;;;;;;;2.00;0.47;;;14.20;96.70;;;;;;5015341;28;20030;-72
2024/04/03 08:18:08;;;;;;;1.60;0.70;;;14.30;96.30;;;;;;5015404;28;20507;-72
2024/04/03 08:20:35;;;;;;;2.72;0.57;;;14.40;95.90;;;;;;5013738;28;20049;-72
2024/04/03 08:23:01;;;;;;;1.08;0.60;;;14.50;96.00;;;;;;5014860;28;20037;-70
2024/04/03 08:25:27;;;;;;;4.68;1.00;;;14.60;96.50;;;;;;5015295;28;20030;-72
2024/04/03 08:27:54;;;;;;;1.77;0.85;;;14.60;95.80;;;;;;5015340;28;20033;-71
2024/04/03 08:30:23;;;;;;;2.40;0.80;;;14.70;96.10;;;;;;5015330;28;20030;-71
2024/04/03 08:32:49;;;;;;;1.50;0.88;;;14.80;95.40;;;;;;5005261;28;20038;-71
2024/04/03 08:35:15;;;;;;;2.15;0.70;;;14.80;94.60;;;;;;4995741;28;20030;-71
2024/04/03 08:37:41;;;;;;;2.33;0.80;;;14.90;94.20;;;;;;4994437;28;20041;-71
2024/04/03 08:40:13;;;;;;;1.83;0.90;;;14.90;95.00;;;;;;4995668;28;20089;-72
2024/04/03 08:42:39;;;;;;;1.13;0.55;;;15.00;93.90;;;;;;4995160;28;20034;-71
2024/04/03 08:45:07;;;;;;;1.02;0.60;;;15.00;93.80;;;;;;4995306;28;20022;-72
2024/04/03 08:47:34;;;;;;;1.58;0.73;;;15.00;93.50;;;;;;4995542;28;20049;-72
2024/04/03 08:50:00;;;;;;;2.95;0.70;;;15.10;93.70;;;;;;4995140;28;20046;-71
2024/04/03 08:52:29;;;;;;;2.65;0.77;;;15.20;94.30;;;;;;4994801;28;20033;-72
2024/04/03 08:55:00;;;;;;;1.10;0.60;;;15.30;93.80;;;;;;4995040;28;20473;-72
2024/04/03 08:57:27;;;;;;;0.82;0.50;;;15.40;93.00;;;;;;4994872;28;20042;-71
2024/04/03 08:59:53;;;;;;;0.50;0.40;;;15.40;92.30;;;;;;4993854;28;20372;-71
2024/04/03 09:02:19;;;;;;;1.20;0.55;;;15.30;91.20;;;;;;5000777;28;20049;-72
2024/04/03 09:04:47;;;;;;;1.33;0.60;;;15.40;90.30;;;;;;5014556;28;20026;-71
2024/04/03 09:07:20;;;;;;;1.48;0.70;;;15.50;91.30;;;;;;5013948;28;20018;-71
2024/04/03 09:09:47;;;;;;;2.17;0.75;;;15.50;91.50;;;;;;5000923;28;20051;-71
2024/04/03 09:12:13;;;;;;;1.38;0.75;;;15.60;92.50;;;;;;4994125;28;20038;-72
2024/04/03 09:14:41;;;;;;;1.58;0.50;;;15.70;91.30;;;;;;4994904;28;20101;-72
2024/04/03 09:17:09;;;;;;;2.53;0.57;;;15.80;90.80;;;;;;4994642;28;20018;-72
2024/04/03 09:19:35;;;;;;;5.10;1.10;;;15.80;91.40;;;;;;4994396;28;20042;-72
2024/04/03 09:22:03;;;;;;;1.35;0.60;;;15.90;91.20;;;;;;4994130;28;20030;-71
2024/04/03 09:24:38;;;;;;;4.28;0.57;;;16.00;91.60;;;;;;4994622;28;20030;-72
2024/04/03 09:27:09;;;;;;;0.95;0.45;;;16.10;90.30;;;;;;4993338;28;20046;-72
2024/04/03 09:29:36;;;;;;;0.90;0.50;;;16.20;89.00;;;;;;4992660;28;20041;-71
2024/04/03 09:32:04;;;;;;;3.88;0.60;;;16.30;89.30;;;;;;4997013;28;20026;-72
2024/04/03 09:34:33;;;;;;;0.90;0.43;;;16.30;89.60;;;;;;5003506;28;20077;-72
2024/04/03 09:37:02;;;;;;;0.98;0.45;;;16.40;90.30;;;;;;5005894;28;20026;-71
2024/04/03 09:39:28;;;;;;;1.45;0.30;;;16.50;88.70;;;;;;5005819;28;20399;-72
2024/04/03 09:42:04;;;;;;;0.80;0.40;;;16.60;90.00;;;;;;5002444;28;20401;-72
2024/04/03 09:44:37;;;;;;;1.05;0.45;;;16.70;83.10;;;;;;5001689;28;20026;-72
2024/04/03 09:47:11;;;;;;;1.00;0.40;;;16.80;87.90;;;;;;5013872;28;20034;-73
2024/04/03 09:49:58;;;;;;;0.40;0.30;;;16.80;84.60;;;;;;5013891;28;20375;-73
2024/04/03 09:52:24;;;;;;;1.83;0.30;;;16.80;84.00;;;;;;5013248;28;20472;-73
2024/04/03 09:54:52;;;;;;;1.27;0.43;;;16.90;81.60;;;;;;4984139;28;20362;-72
2024/04/03 09:57:18;;;;;;;1.15;0.40;;;17.00;84.20;;;;;;4975176;28;20038;-73
2024/04/03 09:59:49;;;;;;;0.55;0.30;;;17.00;79.50;;;;;;4974832;28;20034;-72
2024/04/03 10:02:16;;;;;;;1.30;0.50;;;17.00;81.80;;;;;;4975082;28;20039;-73
2024/04/03 10:04:43;;;;;;;1.75;0.60;;;17.10;80.60;;;;;;4974773;28;20031;-72
2024/04/03 10:07:22;;;;;;;0.90;0.35;;;17.10;83.90;;;;;;4975201;28;20050;-72
2024/04/03 10:09:52;;;;;;;1.83;0.50;;;17.20;82.00;;;;;;4975359;28;20492;-73
2024/04/03 10:12:22;;;;;;;2.72;0.47;;;17.40;82.80;;;;;;4974052;28;20429;-72
2024/04/03 10:14:57;;;;;;;0.80;0.40;;;17.50;84.90;;;;;;4972741;28;20022;-73
2024/04/03 10:17:24;;;;;;;1.08;0.63;;;17.70;83.60;;;;;;4991842;28;20038;-73
2024/04/03 10:19:58;;;;;;;1.65;0.70;;;17.80;83.50;;;;;;4992152;28;20027;-73
2024/04/03 10:22:29;;;;;;;1.55;0.82;;;18.00;81.00;;;;;;4992515;28;20480;-73
2024/04/03 10:24:55;;;;;;;0.70;0.50;;;18.10;82.20;;;;;;4992689;28;20037;-73
2024/04/03 10:27:21;;;;;;;0.32;0.30;;;18.30;83.40;;;;;;4991959;28;20034;-72
2024/04/03 10:29:58;;;;;;;0.65;0.40;;;18.40;81.50;;;;;;4992026;28;20046;-73
2024/04/03 10:32:24;;;;;;;0.98;0.52;;;18.50;82.30;;;;;;4992090;28;20019;-73
2024/04/03 10:34:50;;;;;;;0.90;0.47;;;18.50;75.00;;;;;;4992632;28;20045;-73
2024/04/03 10:37:17;;;;;;;0.80;0.50;;;18.60;79.40;;;;;;4993341;28;20038;-72
2024/04/03 10:39:43;;;;;;;1.50;0.60;;;18.70;80.40;;;;;;4992879;28;20043;-72
2024/04/03 10:42:10;;;;;;;1.10;0.40;;;18.80;80.80;;;;;;4994361;28;20037;-72
2024/04/03 10:44:41;;;;;;;1.65;0.40;;;18.90;77.90;;;;;;4994131;28;20464;-73
2024/04/03 10:47:09;;;;;;;0.60;0.30;;;19.00;80.30;;;;;;4994748;28;20022;-72
2024/04/03 10:49:36;;;;;;;0.50;0.30;;;19.10;81.30;;;;;;4994118;28;20042;-72
2024/04/03 10:52:02;;;;;;;0.30;0.22;;;19.20;80.80;;;;;;4993781;28;20042;-73
2024/04/03 10:54:28;;;;;;;4.07;0.30;;;19.30;78.30;;;;;;4994654;28;20038;-73
2024/04/03 10:56:59;;;;;;;0.98;0.30;;;19.30;77.50;;;;;;4993885;28;20029;-73
2024/04/03 10:59:26;;;;;;;0.70;0.35;;;19.40;76.10;;;;;;4994387;28;20031;-76
2024/04/03 11:01:52;;;;;;;2.00;0.20;;;19.40;77.10;;;;;;4992850;28;20034;-77
2024/04/03 11:04:18;;;;;;;0.90;0.40;;;19.50;78.00;;;;;;4993589;28;20022;-76
2024/04/03 11:06:46;;;;;;;1.23;0.50;;;19.60;75.50;;;;;;4993882;28;20038;-76
2024/04/03 11:09:12;;;;;;;0.52;0.15;;;19.70;71.90;;;;;;4993243;28;20378;-76
2024/04/03 11:11:40;;;;;;;0.50;0.30;;;19.70;69.60;;;;;;4993852;28;20026;-78
2024/04/03 11:14:07;;;;;;;0.38;0.22;;;19.70;65.30;;;;;;4993751;28;20025;-77
2024/04/03 11:16:34;;;;;;;0.60;0.20;;;19.70;72.40;;;;;;4992027;28;20508;-76
2024/04/03 11:19:00;;;;;;;0.85;0.20;;;19.80;74.20;;;;;;4993694;28;20023;-77
2024/04/03 11:21:27;;;;;;;0.20;0.20;;;20.00;74.50;;;;;;4992050;28;20038;-77
2024/04/03 11:23:53;;;;;;;1.35;0.40;;;20.00;72.30;;;;;;4995750;28;20023;-77
2024/04/03 11:26:20;;;;;;;0.35;0.20;;;20.10;71.90;;;;;;4997238;28;20026;-76
2024/04/03 11:28:47;;;;;;;0.20;0.10;;;20.10;72.80;;;;;;4996265;28;20018;-76
2024/04/03 11:31:13;;;;;;;1.05;0.28;;;20.20;72.40;;;;;;4997085;28;20392;-76
2024/04/03 11:33:39;;;;;;;0.50;0.22;;;20.30;72.50;;;;;;4997207;28;20042;-76
2024/04/03 11:36:06;;;;;;;1.13;0.47;;;20.30;72.40;;;;;;4997221;28;20034;-73
2024/04/03 11:38:32;;;;;;;0.55;0.28;;;20.30;67.50;;;;;;4997275;28;20026;-73
2024/04/03 11:40:58;;;;;;;0.30;0.10;;;20.30;69.00;;;;;;4997037;28;20368;-73
2024/04/03 11:43:24;;;;;;;2.85;0.30;;;20.30;67.90;;;;;;4996980;28;20026;-74
2024/04/03 11:45:50;;;;;;;2.72;0.40;;;20.30;69.30;;;;;;4997024;28;20037;-74
2024/04/03 11:48:17;;;;;;;0.95;0.38;;;20.20;67.90;;;;;;4997099;28;20500;-74
2024/04/03 11:50:43;;;;;;;1.48;0.40;;;20.20;68.10;;;;;;4996357;28;20038;-74
2024/04/03 11:53:09;;;;;;;0.20;0.10;;;20.20;67.60;;;;;;4997342;28;20030;-74
2024/04/03 11:55:35;;;;;;;0.20;0.10;;;20.10;70.80;;;;;;4996648;28;20381;-74
2024/04/03 11:58:02;;;;;;;0.52;0.20;;;20.20;68.10;;;;;;4996925;28;20030;-74
2024/04/03 12:00:28;;;;;;;0.70;0.25;;;20.10;69.60;;;;;;4996601;28;20037;-74
2024/04/03 12:02:54;;;;;;;1.25;0.40;;;20.10;69.30;;;;;;4996868;28;20018;-74
2024/04/03 12:05:20;;;;;;;0.40;0.30;;;19.90;69.50;;;;;;4996505;28;20023;-74
2024/04/03 12:07:47;;;;;;;0.52;0.10;;;20.00;70.50;;;;;;4996506;28;20034;-74
2024/04/03 12:10:13;;;;;;;0.85;0.30;;;20.00;69.90;;;;;;4996198;28;20050;-73
2024/04/03 12:12:39;;;;;;;0.80;0.40;;;20.10;70.70;;;;;;4995784;28;20372;-74
2024/04/03 12:15:07;;;;;;;0.75;0.28;;;20.10;71.70;;;;;;4994985;28;20042;-74
2024/04/03 12:17:34;;;;;;;0.50;0.22;;;20.20;71.20;;;;;;4996347;28;20045;-73
2024/04/03 12:22:29;;;;;;;1.02;0.43;;;20.10;71.00;;;;;;4996220;28;20046;-74
2024/04/03 12:24:56;;;;;;;0.50;0.25;;;20.10;67.60;;;;;;4995659;28;20046;-73
2024/04/03 12:27:23;;;;;;;0.65;0.10;;;20.10;69.40;;;;;;4995652;28;20049;-70
2024/04/03 12:29:51;;;;;;;0.70;0.40;;;20.00;70.20;;;;;;5011066;28;20073;-73
2024/04/03 12:32:18;;;;;;;0.88;0.40;;;20.00;69.00;;;;;;4994391;28;20022;-73
2024/04/03 12:34:45;;;;;;;0.50;0.30;;;19.80;66.90;;;;;;4993636;28;20033;-73
2024/04/03 12:37:11;;;;;;;0.63;0.35;;;19.70;69.00;;;;;;4994181;28;20094;-74
2024/04/03 12:39:39;;;;;;;0.90;0.35;;;19.70;70.10;;;;;;4994162;28;20053;-73
2024/04/03 12:42:05;;;;;;;1.85;0.60;;;19.70;71.00;;;;;;4994220;28;20034;-74
2024/04/03 12:44:31;;;;;;;1.00;0.30;;;19.70;71.80;;;;;;4993640;28;20035;-73
2024/04/03 12:46:57;;;;;;;0.60;0.32;;;19.60;72.00;;;;;;4994782;28;20409;-72
2024/04/03 12:49:24;;;;;;;0.50;0.30;;;19.60;71.50;;;;;;4995233;28;20045;-71
2024/04/03 12:51:52;;;;;;;1.67;0.22;;;19.50;72.30;;;;;;4995695;28;20037;-73
2024/04/03 12:54:19;;;;;;;0.70;0.30;;;19.60;72.80;;;;;;4995667;28;20019;-73
2024/04/03 12:56:45;;;;;;;0.73;0.32;;;19.70;72.80;;;;;;4995612;28;20033;-73
2024/04/03 12:59:12;;;;;;;1.13;0.52;;;19.80;73.00;;;;;;4996290;28;20026;-73